sensor_id;sensor_type;location;lat;lon;timestamp;P1;durP1;ratioP1;P2;durP2;ratioP2
41897;SDS011;27576;53.366;-1.498;2022-10-10T00:00:35;6.93;;;2.78;;
41897;SDS011;27576;53.366;-1.498;2022-10-10T00:03:01;7.78;;;3.40;;
41897;SDS011;27576;53.366;-1.498;2022-10-10T00:05:27;7.95;;;3.03;;
41897;SDS011;27576;53.366;-1.498;2022-10-10T00:07:52;7.80;;;3.22;;
41897;SDS011;27576;53.366;-1.498;2022-10-10T00:10:18;10.07;;;3.08;;
41897;SDS011;27576;53.366;-1.498;2022-10-10T00:12:43;5.53;;;2.58;;
41897;SDS011;27576;53.366;-1.498;2022-10-10T00:15:10;9.45;;;3.35;;
41897;SDS011;27576;53.366;-1.498;2022-10-10T00:17:37;4.90;;;2.38;;
41897;SDS011;27576;53.366;-1.498;2022-10-10T00:20:04;3.50;;;2.58;;
41897;SDS011;27576;53.366;-1.498;2022-10-10T00:22:30;8.95;;;2.85;;
41897;SDS011;27576;53.366;-1.498;2022-10-10T00:24:55;7.22;;;3.10;;
41897;SDS011;27576;53.366;-1.498;2022-10-10T00:27:21;7.97;;;2.92;;
41897;SDS011;27576;53.366;-1.498;2022-10-10T00:29:46;7.30;;;3.05;;
41897;SDS011;27576;53.366;-1.498;2022-10-10T00:32:11;12.82;;;3.00;;
41897;SDS011;27576;53.366;-1.498;2022-10-10T00:34:37;9.50;;;3.17;;
41897;SDS011;27576;53.366;-1.498;2022-10-10T00:37:02;8.90;;;2.88;;
41897;SDS011;27576;53.366;-1.498;2022-10-10T00:39:27;9.90;;;3.10;;
41897;SDS011;27576;53.366;-1.498;2022-10-10T00:41:53;5.35;;;2.95;;
41897;SDS011;27576;53.366;-1.498;2022-10-10T00:44:19;9.15;;;2.95;;
41897;SDS011;27576;53.366;-1.498;2022-10-10T00:46:45;8.23;;;3.05;;
41897;SDS011;27576;53.366;-1.498;2022-10-10T00:49:14;5.80;;;3.20;;
41897;SDS011;27576;53.366;-1.498;2022-10-10T00:51:47;4.80;;;2.78;;
41897;SDS011;27576;53.366;-1.498;2022-10-10T00:54:15;8.35;;;2.92;;
41897;SDS011;27576;53.366;-1.498;2022-10-10T00:56:46;5.22;;;3.00;;
41897;SDS011;27576;53.366;-1.498;2022-10-10T00:59:14;7.30;;;3.47;;
41897;SDS011;27576;53.366;-1.498;2022-10-10T01:01:40;8.50;;;3.35;;
41897;SDS011;27576;53.366;-1.498;2022-10-10T01:04:26;4.57;;;2.75;;
41897;SDS011;27576;53.366;-1.498;2022-10-10T01:07:07;4.97;;;2.85;;
41897;SDS011;27576;53.366;-1.498;2022-10-10T01:09:36;8.10;;;3.40;;
41897;SDS011;27576;53.366;-1.498;2022-10-10T01:31:05;4.47;;;2.40;;
41897;SDS011;27576;53.366;-1.498;2022-10-10T01:33:41;4.20;;;2.00;;
41897;SDS011;27576;53.366;-1.498;2022-10-10T01:38:46;3.33;;;2.90;;
41897;SDS011;27576;53.366;-1.498;2022-10-10T01:41:33;7.82;;;4.28;;
41897;SDS011;27576;53.366;-1.498;2022-10-10T01:44:02;5.03;;;3.03;;
41897;SDS011;27576;53.366;-1.498;2022-10-10T01:46:28;2.67;;;1.70;;
41897;SDS011;27576;53.366;-1.498;2022-10-10T01:48:54;2.75;;;1.50;;
41897;SDS011;27576;53.366;-1.498;2022-10-10T02:05:31;7.78;;;1.85;;
41897;SDS011;27576;53.366;-1.498;2022-10-10T02:08:33;5.35;;;1.30;;
41897;SDS011;27576;53.366;-1.498;2022-10-10T02:11:05;3.50;;;1.60;;
41897;SDS011;27576;53.366;-1.498;2022-10-10T02:13:43;7.25;;;1.52;;
41897;SDS011;27576;53.366;-1.498;2022-10-10T02:16:14;7.32;;;1.55;;
41897;SDS011;27576;53.366;-1.498;2022-10-10T02:18:43;6.70;;;1.75;;
41897;SDS011;27576;53.366;-1.498;2022-10-10T02:21:09;7.97;;;1.55;;
41897;SDS011;27576;53.366;-1.498;2022-10-10T02:23:37;5.18;;;1.20;;
41897;SDS011;27576;53.366;-1.498;2022-10-10T02:26:06;5.95;;;1.90;;
41897;SDS011;27576;53.366;-1.498;2022-10-10T02:28:40;7.43;;;1.95;;
41897;SDS011;27576;53.366;-1.498;2022-10-10T02:31:14;7.00;;;1.70;;
41897;SDS011;27576;53.366;-1.498;2022-10-10T02:33:44;9.88;;;1.98;;
41897;SDS011;27576;53.366;-1.498;2022-10-10T02:36:14;5.97;;;2.00;;
41897;SDS011;27576;53.366;-1.498;2022-10-10T02:38:43;7.68;;;2.15;;
41897;SDS011;27576;53.366;-1.498;2022-10-10T02:41:10;8.85;;;1.95;;
41897;SDS011;27576;53.366;-1.498;2022-10-10T02:43:38;9.18;;;2.17;;
41897;SDS011;27576;53.366;-1.498;2022-10-10T02:46:05;6.00;;;1.65;;
41897;SDS011;27576;53.366;-1.498;2022-10-10T02:48:34;5.78;;;1.80;;
41897;SDS011;27576;53.366;-1.498;2022-10-10T02:50:59;7.35;;;1.95;;
41897;SDS011;27576;53.366;-1.498;2022-10-10T02:53:25;9.65;;;1.98;;
41897;SDS011;27576;53.366;-1.498;2022-10-10T02:55:50;10.18;;;1.95;;
41897;SDS011;27576;53.366;-1.498;2022-10-10T02:58:16;7.60;;;2.03;;
41897;SDS011;27576;53.366;-1.498;2022-10-10T03:00:41;13.50;;;2.05;;
41897;SDS011;27576;53.366;-1.498;2022-10-10T03:03:06;7.50;;;1.60;;
41897;SDS011;27576;53.366;-1.498;2022-10-10T03:05:32;8.05;;;2.45;;
41897;SDS011;27576;53.366;-1.498;2022-10-10T03:07:57;9.80;;;2.10;;
41897;SDS011;27576;53.366;-1.498;2022-10-10T03:10:22;9.80;;;2.28;;
41897;SDS011;27576;53.366;-1.498;2022-10-10T03:12:48;8.48;;;2.05;;
41897;SDS011;27576;53.366;-1.498;2022-10-10T03:15:13;15.48;;;2.72;;
41897;SDS011;27576;53.366;-1.498;2022-10-10T03:17:39;7.05;;;2.05;;
41897;SDS011;27576;53.366;-1.498;2022-10-10T03:20:04;5.55;;;1.98;;
41897;SDS011;27576;53.366;-1.498;2022-10-10T03:22:30;9.18;;;2.83;;
41897;SDS011;27576;53.366;-1.498;2022-10-10T03:24:56;9.85;;;2.10;;
41897;SDS011;27576;53.366;-1.498;2022-10-10T03:27:21;10.05;;;2.35;;
41897;SDS011;27576;53.366;-1.498;2022-10-10T03:29:46;8.77;;;2.17;;
41897;SDS011;27576;53.366;-1.498;2022-10-10T03:32:12;8.93;;;2.15;;
41897;SDS011;27576;53.366;-1.498;2022-10-10T03:34:37;13.50;;;2.42;;
41897;SDS011;27576;53.366;-1.498;2022-10-10T03:37:02;16.50;;;2.53;;
41897;SDS011;27576;53.366;-1.498;2022-10-10T03:39:28;9.95;;;2.53;;
41897;SDS011;27576;53.366;-1.498;2022-10-10T03:41:53;15.30;;;2.83;;
41897;SDS011;27576;53.366;-1.498;2022-10-10T03:44:19;15.77;;;3.08;;
41897;SDS011;27576;53.366;-1.498;2022-10-10T03:46:44;11.85;;;2.60;;
41897;SDS011;27576;53.366;-1.498;2022-10-10T03:49:09;15.55;;;2.92;;
41897;SDS011;27576;53.366;-1.498;2022-10-10T03:51:35;12.32;;;2.30;;
41897;SDS011;27576;53.366;-1.498;2022-10-10T03:54:00;10.57;;;2.53;;
41897;SDS011;27576;53.366;-1.498;2022-10-10T03:56:26;10.85;;;2.40;;
41897;SDS011;27576;53.366;-1.498;2022-10-10T03:58:51;13.07;;;2.78;;
41897;SDS011;27576;53.366;-1.498;2022-10-10T04:01:16;9.07;;;1.90;;
41897;SDS011;27576;53.366;-1.498;2022-10-10T04:03:42;8.75;;;2.25;;
41897;SDS011;27576;53.366;-1.498;2022-10-10T04:06:07;5.53;;;1.98;;
41897;SDS011;27576;53.366;-1.498;2022-10-10T04:08:32;8.18;;;1.90;;
41897;SDS011;27576;53.366;-1.498;2022-10-10T04:10:58;8.15;;;2.47;;
41897;SDS011;27576;53.366;-1.498;2022-10-10T04:13:23;12.30;;;2.42;;
41897;SDS011;27576;53.366;-1.498;2022-10-10T04:15:52;9.10;;;2.10;;
41897;SDS011;27576;53.366;-1.498;2022-10-10T04:18:19;11.10;;;2.65;;
41897;SDS011;27576;53.366;-1.498;2022-10-10T04:20:45;9.90;;;2.30;;
41897;SDS011;27576;53.366;-1.498;2022-10-10T04:23:10;10.13;;;2.00;;
41897;SDS011;27576;53.366;-1.498;2022-10-10T04:25:36;9.95;;;2.30;;
41897;SDS011;27576;53.366;-1.498;2022-10-10T04:28:01;12.13;;;2.80;;
41897;SDS011;27576;53.366;-1.498;2022-10-10T04:30:28;10.80;;;2.78;;
41897;SDS011;27576;53.366;-1.498;2022-10-10T04:32:57;11.43;;;2.58;;
41897;SDS011;27576;53.366;-1.498;2022-10-10T04:35:23;13.35;;;3.05;;
41897;SDS011;27576;53.366;-1.498;2022-10-10T04:37:49;12.30;;;2.40;;
41897;SDS011;27576;53.366;-1.498;2022-10-10T04:40:14;11.55;;;2.67;;
41897;SDS011;27576;53.366;-1.498;2022-10-10T04:42:40;12.10;;;2.90;;
41897;SDS011;27576;53.366;-1.498;2022-10-10T04:45:05;10.60;;;2.83;;
41897;SDS011;27576;53.366;-1.498;2022-10-10T04:47:31;10.68;;;2.50;;
41897;SDS011;27576;53.366;-1.498;2022-10-10T04:49:56;9.98;;;2.05;;
41897;SDS011;27576;53.366;-1.498;2022-10-10T04:52:22;11.65;;;2.80;;
41897;SDS011;27576;53.366;-1.498;2022-10-10T04:54:48;12.20;;;2.33;;
41897;SDS011;27576;53.366;-1.498;2022-10-10T04:57:13;12.45;;;3.30;;
41897;SDS011;27576;53.366;-1.498;2022-10-10T04:59:39;12.73;;;2.53;;
41897;SDS011;27576;53.366;-1.498;2022-10-10T05:02:04;8.55;;;2.67;;
41897;SDS011;27576;53.366;-1.498;2022-10-10T05:04:30;9.93;;;2.85;;
41897;SDS011;27576;53.366;-1.498;2022-10-10T05:06:55;9.88;;;2.97;;
41897;SDS011;27576;53.366;-1.498;2022-10-10T05:09:20;15.68;;;3.13;;
41897;SDS011;27576;53.366;-1.498;2022-10-10T05:11:46;13.27;;;3.15;;
41897;SDS011;27576;53.366;-1.498;2022-10-10T05:14:11;15.88;;;3.50;;
41897;SDS011;27576;53.366;-1.498;2022-10-10T05:16:37;12.25;;;3.17;;
41897;SDS011;27576;53.366;-1.498;2022-10-10T05:19:02;17.10;;;2.97;;
41897;SDS011;27576;53.366;-1.498;2022-10-10T05:21:27;14.63;;;2.88;;
41897;SDS011;27576;53.366;-1.498;2022-10-10T05:23:53;9.10;;;2.83;;
41897;SDS011;27576;53.366;-1.498;2022-10-10T05:26:18;20.50;;;3.85;;
41897;SDS011;27576;53.366;-1.498;2022-10-10T05:28:45;16.17;;;3.55;;
41897;SDS011;27576;53.366;-1.498;2022-10-10T05:31:11;11.10;;;2.63;;
41897;SDS011;27576;53.366;-1.498;2022-10-10T05:33:37;12.52;;;2.85;;
41897;SDS011;27576;53.366;-1.498;2022-10-10T05:38:32;15.75;;;3.58;;
41897;SDS011;27576;53.366;-1.498;2022-10-10T05:40:58;12.05;;;3.55;;
41897;SDS011;27576;53.366;-1.498;2022-10-10T05:43:23;13.90;;;3.05;;
41897;SDS011;27576;53.366;-1.498;2022-10-10T05:45:49;9.48;;;3.15;;
41897;SDS011;27576;53.366;-1.498;2022-10-10T05:48:14;16.52;;;3.85;;
41897;SDS011;27576;53.366;-1.498;2022-10-10T05:50:40;12.00;;;3.20;;
41897;SDS011;27576;53.366;-1.498;2022-10-10T05:53:11;14.20;;;3.50;;
41897;SDS011;27576;53.366;-1.498;2022-10-10T05:55:37;17.00;;;2.97;;
41897;SDS011;27576;53.366;-1.498;2022-10-10T05:58:03;17.83;;;3.80;;
41897;SDS011;27576;53.366;-1.498;2022-10-10T06:00:28;12.82;;;3.17;;
41897;SDS011;27576;53.366;-1.498;2022-10-10T06:02:54;11.75;;;3.05;;
41897;SDS011;27576;53.366;-1.498;2022-10-10T06:05:22;12.18;;;3.35;;
41897;SDS011;27576;53.366;-1.498;2022-10-10T06:07:48;14.52;;;3.75;;
41897;SDS011;27576;53.366;-1.498;2022-10-10T06:10:13;15.15;;;3.78;;
41897;SDS011;27576;53.366;-1.498;2022-10-10T06:12:38;17.50;;;3.50;;
41897;SDS011;27576;53.366;-1.498;2022-10-10T06:15:04;9.13;;;2.60;;
41897;SDS011;27576;53.366;-1.498;2022-10-10T06:17:30;11.65;;;2.88;;
41897;SDS011;27576;53.366;-1.498;2022-10-10T06:19:55;9.65;;;3.13;;
41897;SDS011;27576;53.366;-1.498;2022-10-10T06:22:20;8.80;;;2.88;;
41897;SDS011;27576;53.366;-1.498;2022-10-10T06:24:46;13.63;;;3.60;;
41897;SDS011;27576;53.366;-1.498;2022-10-10T06:27:11;13.25;;;3.13;;
41897;SDS011;27576;53.366;-1.498;2022-10-10T06:29:36;13.98;;;3.33;;
41897;SDS011;27576;53.366;-1.498;2022-10-10T06:32:02;10.32;;;3.28;;
41897;SDS011;27576;53.366;-1.498;2022-10-10T06:34:27;19.65;;;3.65;;
41897;SDS011;27576;53.366;-1.498;2022-10-10T06:36:53;14.32;;;3.40;;
41897;SDS011;27576;53.366;-1.498;2022-10-10T06:39:18;18.25;;;3.78;;
41897;SDS011;27576;53.366;-1.498;2022-10-10T06:41:44;23.55;;;3.63;;
41897;SDS011;27576;53.366;-1.498;2022-10-10T06:44:09;15.55;;;3.55;;
41897;SDS011;27576;53.366;-1.498;2022-10-10T06:46:35;11.05;;;2.67;;
41897;SDS011;27576;53.366;-1.498;2022-10-10T06:49:03;13.32;;;3.15;;
41897;SDS011;27576;53.366;-1.498;2022-10-10T06:51:29;15.57;;;3.65;;
41897;SDS011;27576;53.366;-1.498;2022-10-10T06:53:56;16.95;;;3.53;;
41897;SDS011;27576;53.366;-1.498;2022-10-10T06:56:22;13.23;;;2.92;;
41897;SDS011;27576;53.366;-1.498;2022-10-10T06:58:48;11.75;;;3.08;;
41897;SDS011;27576;53.366;-1.498;2022-10-10T07:01:15;14.32;;;3.55;;
41897;SDS011;27576;53.366;-1.498;2022-10-10T07:03:42;17.85;;;3.72;;
41897;SDS011;27576;53.366;-1.498;2022-10-10T07:06:08;14.93;;;3.15;;
41897;SDS011;27576;53.366;-1.498;2022-10-10T07:08:35;15.02;;;2.92;;
41897;SDS011;27576;53.366;-1.498;2022-10-10T07:11:01;14.10;;;3.35;;
41897;SDS011;27576;53.366;-1.498;2022-10-10T07:13:27;14.82;;;3.42;;
41897;SDS011;27576;53.366;-1.498;2022-10-10T07:15:52;12.43;;;3.10;;
41897;SDS011;27576;53.366;-1.498;2022-10-10T07:18:18;18.08;;;3.47;;
41897;SDS011;27576;53.366;-1.498;2022-10-10T07:20:44;20.00;;;3.55;;
41897;SDS011;27576;53.366;-1.498;2022-10-10T07:23:10;12.48;;;2.83;;
41897;SDS011;27576;53.366;-1.498;2022-10-10T07:25:39;17.20;;;3.78;;
41897;SDS011;27576;53.366;-1.498;2022-10-10T07:28:06;17.55;;;3.47;;
41897;SDS011;27576;53.366;-1.498;2022-10-10T07:30:32;8.68;;;2.40;;
41897;SDS011;27576;53.366;-1.498;2022-10-10T07:32:58;15.23;;;4.03;;
41897;SDS011;27576;53.366;-1.498;2022-10-10T07:35:23;10.48;;;3.17;;
41897;SDS011;27576;53.366;-1.498;2022-10-10T07:37:52;12.20;;;3.53;;
41897;SDS011;27576;53.366;-1.498;2022-10-10T07:40:18;18.63;;;3.72;;
41897;SDS011;27576;53.366;-1.498;2022-10-10T07:42:44;14.90;;;3.95;;
41897;SDS011;27576;53.366;-1.498;2022-10-10T07:45:09;13.18;;;3.17;;
41897;SDS011;27576;53.366;-1.498;2022-10-10T07:47:36;10.70;;;2.92;;
41897;SDS011;27576;53.366;-1.498;2022-10-10T07:50:03;14.10;;;3.35;;
41897;SDS011;27576;53.366;-1.498;2022-10-10T07:52:30;19.42;;;3.75;;
41897;SDS011;27576;53.366;-1.498;2022-10-10T07:54:57;9.60;;;2.95;;
41897;SDS011;27576;53.366;-1.498;2022-10-10T07:57:22;11.82;;;2.78;;
41897;SDS011;27576;53.366;-1.498;2022-10-10T07:59:47;20.77;;;4.03;;
41897;SDS011;27576;53.366;-1.498;2022-10-10T08:02:13;14.63;;;3.42;;
41897;SDS011;27576;53.366;-1.498;2022-10-10T08:04:38;13.50;;;3.17;;
41897;SDS011;27576;53.366;-1.498;2022-10-10T08:07:04;14.40;;;2.78;;
41897;SDS011;27576;53.366;-1.498;2022-10-10T08:09:30;16.58;;;3.53;;
41897;SDS011;27576;53.366;-1.498;2022-10-10T08:11:55;16.13;;;2.40;;
41897;SDS011;27576;53.366;-1.498;2022-10-10T08:14:20;16.15;;;3.47;;
41897;SDS011;27576;53.366;-1.498;2022-10-10T08:16:46;10.75;;;2.80;;
41897;SDS011;27576;53.366;-1.498;2022-10-10T08:19:11;18.02;;;3.78;;
41897;SDS011;27576;53.366;-1.498;2022-10-10T08:21:37;16.05;;;3.63;;
41897;SDS011;27576;53.366;-1.498;2022-10-10T08:24:02;13.10;;;2.67;;
41897;SDS011;27576;53.366;-1.498;2022-10-10T08:26:27;14.05;;;3.13;;
41897;SDS011;27576;53.366;-1.498;2022-10-10T08:28:53;14.85;;;3.10;;
41897;SDS011;27576;53.366;-1.498;2022-10-10T08:31:19;13.65;;;3.10;;
41897;SDS011;27576;53.366;-1.498;2022-10-10T08:33:46;11.73;;;2.67;;
41897;SDS011;27576;53.366;-1.498;2022-10-10T08:36:14;24.00;;;3.47;;
41897;SDS011;27576;53.366;-1.498;2022-10-10T08:38:42;18.27;;;2.70;;
41897;SDS011;27576;53.366;-1.498;2022-10-10T08:41:13;12.93;;;3.10;;
41897;SDS011;27576;53.366;-1.498;2022-10-10T08:43:46;22.10;;;3.28;;
41897;SDS011;27576;53.366;-1.498;2022-10-10T08:46:18;16.23;;;2.63;;
41897;SDS011;27576;53.366;-1.498;2022-10-10T08:49:07;15.70;;;3.15;;
41897;SDS011;27576;53.366;-1.498;2022-10-10T08:51:42;10.10;;;2.80;;
41897;SDS011;27576;53.366;-1.498;2022-10-10T08:54:13;20.80;;;3.17;;
41897;SDS011;27576;53.366;-1.498;2022-10-10T08:56:41;18.08;;;2.85;;
41897;SDS011;27576;53.366;-1.498;2022-10-10T08:59:14;23.63;;;4.20;;
41897;SDS011;27576;53.366;-1.498;2022-10-10T09:01:44;13.25;;;3.17;;
41897;SDS011;27576;53.366;-1.498;2022-10-10T09:04:14;21.08;;;3.47;;
41897;SDS011;27576;53.366;-1.498;2022-10-10T09:07:16;17.67;;;3.40;;
41897;SDS011;27576;53.366;-1.498;2022-10-10T09:15:32;10.90;;;2.88;;
41897;SDS011;27576;53.366;-1.498;2022-10-10T09:21:12;15.60;;;3.58;;
41897;SDS011;27576;53.366;-1.498;2022-10-10T09:26:11;17.10;;;3.88;;
41897;SDS011;27576;53.366;-1.498;2022-10-10T09:31:16;13.48;;;3.33;;
41897;SDS011;27576;53.366;-1.498;2022-10-10T09:36:17;12.45;;;3.30;;
41897;SDS011;27576;53.366;-1.498;2022-10-10T09:38:49;13.85;;;3.00;;
41897;SDS011;27576;53.366;-1.498;2022-10-10T09:41:20;13.23;;;3.67;;
41897;SDS011;27576;53.366;-1.498;2022-10-10T09:43:46;12.75;;;3.00;;
41897;SDS011;27576;53.366;-1.498;2022-10-10T09:46:12;12.95;;;3.20;;
41897;SDS011;27576;53.366;-1.498;2022-10-10T09:48:39;15.10;;;3.35;;
41897;SDS011;27576;53.366;-1.498;2022-10-10T09:51:15;16.65;;;3.25;;
41897;SDS011;27576;53.366;-1.498;2022-10-10T09:53:43;12.77;;;3.30;;
41897;SDS011;27576;53.366;-1.498;2022-10-10T09:56:21;12.93;;;3.10;;
41897;SDS011;27576;53.366;-1.498;2022-10-10T09:58:50;20.77;;;3.83;;
41897;SDS011;27576;53.366;-1.498;2022-10-10T10:01:21;11.00;;;2.92;;
41897;SDS011;27576;53.366;-1.498;2022-10-10T10:04:12;11.55;;;2.70;;
41897;SDS011;27576;53.366;-1.498;2022-10-10T10:06:46;13.35;;;3.20;;
41897;SDS011;27576;53.366;-1.498;2022-10-10T10:09:18;15.48;;;3.13;;
41897;SDS011;27576;53.366;-1.498;2022-10-10T10:11:47;12.85;;;2.60;;
41897;SDS011;27576;53.366;-1.498;2022-10-10T10:14:26;11.05;;;2.22;;
41897;SDS011;27576;53.366;-1.498;2022-10-10T10:16:54;8.40;;;2.70;;
41897;SDS011;27576;53.366;-1.498;2022-10-10T10:22:02;10.52;;;2.78;;
41897;SDS011;27576;53.366;-1.498;2022-10-10T10:24:29;14.25;;;2.95;;
41897;SDS011;27576;53.366;-1.498;2022-10-10T10:27:07;8.40;;;2.60;;
41897;SDS011;27576;53.366;-1.498;2022-10-10T10:29:35;7.53;;;2.10;;
41897;SDS011;27576;53.366;-1.498;2022-10-10T10:32:11;10.75;;;2.72;;
41897;SDS011;27576;53.366;-1.498;2022-10-10T10:40:33;11.88;;;2.03;;
41897;SDS011;27576;53.366;-1.498;2022-10-10T10:43:18;6.35;;;1.90;;
41897;SDS011;27576;53.366;-1.498;2022-10-10T10:46:02;10.30;;;1.85;;
41897;SDS011;27576;53.366;-1.498;2022-10-10T10:57:00;11.07;;;2.00;;
41897;SDS011;27576;53.366;-1.498;2022-10-10T11:07:54;7.35;;;1.90;;
41897;SDS011;27576;53.366;-1.498;2022-10-10T11:10:42;5.95;;;1.88;;
41897;SDS011;27576;53.366;-1.498;2022-10-10T11:13:30;9.55;;;2.50;;
41897;SDS011;27576;53.366;-1.498;2022-10-10T11:16:22;5.38;;;1.52;;
41897;SDS011;27576;53.366;-1.498;2022-10-10T11:19:00;6.55;;;1.95;;
41897;SDS011;27576;53.366;-1.498;2022-10-10T11:21:45;6.18;;;2.40;;
41897;SDS011;27576;53.366;-1.498;2022-10-10T11:24:18;12.63;;;2.15;;
41897;SDS011;27576;53.366;-1.498;2022-10-10T11:26:50;12.00;;;1.92;;
41897;SDS011;27576;53.366;-1.498;2022-10-10T11:29:23;10.30;;;2.00;;
41897;SDS011;27576;53.366;-1.498;2022-10-10T11:31:58;10.00;;;2.00;;
41897;SDS011;27576;53.366;-1.498;2022-10-10T11:37:03;7.88;;;2.58;;
41897;SDS011;27576;53.366;-1.498;2022-10-10T11:39:37;13.85;;;2.90;;
41897;SDS011;27576;53.366;-1.498;2022-10-10T11:42:12;7.63;;;2.03;;
41897;SDS011;27576;53.366;-1.498;2022-10-10T11:44:53;6.35;;;1.92;;
41897;SDS011;27576;53.366;-1.498;2022-10-10T11:47:34;7.78;;;2.05;;
41897;SDS011;27576;53.366;-1.498;2022-10-10T11:50:20;8.70;;;1.90;;
41897;SDS011;27576;53.366;-1.498;2022-10-10T12:00:45;7.72;;;2.05;;
41897;SDS011;27576;53.366;-1.498;2022-10-10T12:03:14;6.00;;;1.70;;
41897;SDS011;27576;53.366;-1.498;2022-10-10T12:05:40;9.23;;;1.88;;
41897;SDS011;27576;53.366;-1.498;2022-10-10T12:08:16;11.48;;;1.80;;
41897;SDS011;27576;53.366;-1.498;2022-10-10T12:10:50;12.68;;;2.22;;
41897;SDS011;27576;53.366;-1.498;2022-10-10T12:15:54;8.45;;;2.05;;
41897;SDS011;27576;53.366;-1.498;2022-10-10T12:18:37;9.73;;;2.05;;
41897;SDS011;27576;53.366;-1.498;2022-10-10T12:21:16;9.55;;;2.35;;
41897;SDS011;27576;53.366;-1.498;2022-10-10T12:24:06;9.02;;;1.88;;
41897;SDS011;27576;53.366;-1.498;2022-10-10T12:37:27;6.30;;;1.85;;
41897;SDS011;27576;53.366;-1.498;2022-10-10T12:42:40;5.93;;;1.17;;
41897;SDS011;27576;53.366;-1.498;2022-10-10T12:48:05;6.40;;;1.65;;
41897;SDS011;27576;53.366;-1.498;2022-10-10T12:50:52;5.20;;;1.85;;
41897;SDS011;27576;53.366;-1.498;2022-10-10T12:53:22;8.75;;;1.92;;
41897;SDS011;27576;53.366;-1.498;2022-10-10T12:55:49;9.45;;;1.63;;
41897;SDS011;27576;53.366;-1.498;2022-10-10T13:00:46;5.78;;;1.50;;
41897;SDS011;27576;53.366;-1.498;2022-10-10T13:03:54;6.63;;;1.67;;
41897;SDS011;27576;53.366;-1.498;2022-10-10T13:06:11;5.68;;;1.45;;
41897;SDS011;27576;53.366;-1.498;2022-10-10T13:08:39;5.80;;;2.17;;
41897;SDS011;27576;53.366;-1.498;2022-10-10T13:11:09;5.70;;;1.67;;
41897;SDS011;27576;53.366;-1.498;2022-10-10T13:13:37;7.32;;;1.83;;
41897;SDS011;27576;53.366;-1.498;2022-10-10T13:16:10;8.63;;;1.92;;
41897;SDS011;27576;53.366;-1.498;2022-10-10T13:21:07;6.75;;;1.90;;
41897;SDS011;27576;53.366;-1.498;2022-10-10T13:23:35;7.38;;;2.05;;
41897;SDS011;27576;53.366;-1.498;2022-10-10T13:26:05;8.20;;;2.13;;
41897;SDS011;27576;53.366;-1.498;2022-10-10T13:28:30;6.93;;;1.92;;
41897;SDS011;27576;53.366;-1.498;2022-10-10T13:30:56;11.02;;;1.90;;
41897;SDS011;27576;53.366;-1.498;2022-10-10T13:33:22;7.13;;;2.00;;
41897;SDS011;27576;53.366;-1.498;2022-10-10T13:35:53;6.22;;;1.95;;
41897;SDS011;27576;53.366;-1.498;2022-10-10T13:38:29;9.75;;;2.13;;
41897;SDS011;27576;53.366;-1.498;2022-10-10T13:40:54;6.60;;;2.15;;
41897;SDS011;27576;53.366;-1.498;2022-10-10T13:43:20;5.00;;;1.70;;
41897;SDS011;27576;53.366;-1.498;2022-10-10T13:45:50;7.30;;;1.75;;
41897;SDS011;27576;53.366;-1.498;2022-10-10T13:51:03;8.82;;;2.05;;
41897;SDS011;27576;53.366;-1.498;2022-10-10T13:53:46;12.57;;;2.20;;
41897;SDS011;27576;53.366;-1.498;2022-10-10T13:56:59;17.20;;;3.22;;
41897;SDS011;27576;53.366;-1.498;2022-10-10T13:59:06;11.23;;;1.85;;
41897;SDS011;27576;53.366;-1.498;2022-10-10T14:01:36;10.57;;;2.50;;
41897;SDS011;27576;53.366;-1.498;2022-10-10T14:09:38;7.30;;;2.40;;
41897;SDS011;27576;53.366;-1.498;2022-10-10T14:12:11;10.32;;;2.63;;
41897;SDS011;27576;53.366;-1.498;2022-10-10T14:14:48;6.97;;;2.08;;
41897;SDS011;27576;53.366;-1.498;2022-10-10T14:17:15;11.13;;;2.80;;
41897;SDS011;27576;53.366;-1.498;2022-10-10T14:19:41;10.50;;;2.22;;
41897;SDS011;27576;53.366;-1.498;2022-10-10T14:22:07;14.02;;;2.67;;
41897;SDS011;27576;53.366;-1.498;2022-10-10T14:24:33;7.63;;;2.50;;
41897;SDS011;27576;53.366;-1.498;2022-10-10T14:29:52;7.68;;;2.17;;
41897;SDS011;27576;53.366;-1.498;2022-10-10T14:32:19;8.25;;;2.13;;
41897;SDS011;27576;53.366;-1.498;2022-10-10T14:34:45;8.50;;;2.20;;
41897;SDS011;27576;53.366;-1.498;2022-10-10T14:37:14;7.47;;;2.40;;
41897;SDS011;27576;53.366;-1.498;2022-10-10T14:39:42;6.45;;;1.83;;
41897;SDS011;27576;53.366;-1.498;2022-10-10T14:42:08;9.75;;;2.40;;
41897;SDS011;27576;53.366;-1.498;2022-10-10T14:44:36;10.38;;;2.38;;
41897;SDS011;27576;53.366;-1.498;2022-10-10T14:47:01;7.80;;;1.83;;
41897;SDS011;27576;53.366;-1.498;2022-10-10T14:49:27;8.57;;;2.92;;
41897;SDS011;27576;53.366;-1.498;2022-10-10T14:51:52;10.25;;;2.75;;
41897;SDS011;27576;53.366;-1.498;2022-10-10T14:54:17;9.27;;;2.10;;
41897;SDS011;27576;53.366;-1.498;2022-10-10T14:56:43;9.88;;;2.42;;
41897;SDS011;27576;53.366;-1.498;2022-10-10T14:59:18;9.90;;;2.20;;
41897;SDS011;27576;53.366;-1.498;2022-10-10T15:01:45;9.93;;;2.42;;
41897;SDS011;27576;53.366;-1.498;2022-10-10T15:04:12;11.30;;;2.72;;
41897;SDS011;27576;53.366;-1.498;2022-10-10T15:06:37;9.88;;;2.90;;
41897;SDS011;27576;53.366;-1.498;2022-10-10T15:09:03;9.93;;;3.22;;
41897;SDS011;27576;53.366;-1.498;2022-10-10T15:11:29;11.57;;;3.10;;
41897;SDS011;27576;53.366;-1.498;2022-10-10T15:13:54;9.75;;;2.88;;
41897;SDS011;27576;53.366;-1.498;2022-10-10T15:16:21;8.77;;;3.40;;
41897;SDS011;27576;53.366;-1.498;2022-10-10T15:18:46;12.60;;;3.20;;
41897;SDS011;27576;53.366;-1.498;2022-10-10T15:21:12;13.75;;;3.47;;
41897;SDS011;27576;53.366;-1.498;2022-10-10T15:23:37;20.38;;;5.40;;
41897;SDS011;27576;53.366;-1.498;2022-10-10T15:26:03;20.05;;;5.88;;
41897;SDS011;27576;53.366;-1.498;2022-10-10T15:28:29;15.90;;;6.75;;
41897;SDS011;27576;53.366;-1.498;2022-10-10T15:30:55;19.30;;;8.82;;
41897;SDS011;27576;53.366;-1.498;2022-10-10T15:33:21;17.92;;;8.98;;
41897;SDS011;27576;53.366;-1.498;2022-10-10T15:36:09;19.80;;;8.88;;
41897;SDS011;27576;53.366;-1.498;2022-10-10T15:38:34;19.63;;;7.63;;
41897;SDS011;27576;53.366;-1.498;2022-10-10T15:41:01;17.83;;;6.78;;
41897;SDS011;27576;53.366;-1.498;2022-10-10T15:43:28;19.73;;;5.85;;
41897;SDS011;27576;53.366;-1.498;2022-10-10T15:45:54;18.35;;;5.38;;
41897;SDS011;27576;53.366;-1.498;2022-10-10T15:48:22;14.63;;;4.55;;
41897;SDS011;27576;53.366;-1.498;2022-10-10T15:50:48;21.67;;;5.82;;
41897;SDS011;27576;53.366;-1.498;2022-10-10T15:53:15;17.13;;;6.30;;
41897;SDS011;27576;53.366;-1.498;2022-10-10T15:55:45;14.90;;;5.95;;
41897;SDS011;27576;53.366;-1.498;2022-10-10T15:58:12;16.13;;;5.57;;
41897;SDS011;27576;53.366;-1.498;2022-10-10T16:00:39;18.17;;;5.30;;
41897;SDS011;27576;53.366;-1.498;2022-10-10T16:03:05;16.73;;;4.50;;
41897;SDS011;27576;53.366;-1.498;2022-10-10T16:05:34;11.27;;;4.07;;
41897;SDS011;27576;53.366;-1.498;2022-10-10T16:08:01;14.23;;;5.25;;
41897;SDS011;27576;53.366;-1.498;2022-10-10T16:10:26;20.40;;;7.63;;
41897;SDS011;27576;53.366;-1.498;2022-10-10T16:12:52;29.60;;;8.60;;
41897;SDS011;27576;53.366;-1.498;2022-10-10T16:15:19;21.95;;;8.85;;
41897;SDS011;27576;53.366;-1.498;2022-10-10T16:17:44;26.25;;;10.65;;
41897;SDS011;27576;53.366;-1.498;2022-10-10T16:20:10;28.08;;;13.73;;
41897;SDS011;27576;53.366;-1.498;2022-10-10T16:22:35;34.53;;;19.15;;
41897;SDS011;27576;53.366;-1.498;2022-10-10T16:25:02;34.55;;;17.85;;
41897;SDS011;27576;53.366;-1.498;2022-10-10T16:27:28;28.77;;;16.02;;
41897;SDS011;27576;53.366;-1.498;2022-10-10T16:29:54;33.13;;;13.10;;
41897;SDS011;27576;53.366;-1.498;2022-10-10T16:32:19;31.45;;;12.75;;
41897;SDS011;27576;53.366;-1.498;2022-10-10T16:34:44;27.15;;;9.43;;
41897;SDS011;27576;53.366;-1.498;2022-10-10T16:37:10;28.52;;;8.68;;
41897;SDS011;27576;53.366;-1.498;2022-10-10T16:39:35;23.33;;;8.15;;